sensor_id;sensor_type;location;lat;lon;timestamp;pressure;altitude;pressure_sealevel;temperature;humidity
31044;BME280;17710;52.520;13.352;2023-04-27T00:01:15;101473.97;;;12.71;40.83
31044;BME280;17710;52.520;13.352;2023-04-27T00:03:43;101464.56;;;12.61;41.24
31044;BME280;17710;52.520;13.352;2023-04-27T00:06:10;101468.38;;;12.52;41.36
31044;BME280;17710;52.520;13.352;2023-04-27T00:08:36;101468.59;;;12.46;41.20
31044;BME280;17710;52.520;13.352;2023-04-27T00:11:03;101460.28;;;12.57;41.08
31044;BME280;17710;52.520;13.352;2023-04-27T00:13:30;101462.88;;;12.58;40.73
31044;BME280;17710;52.520;13.352;2023-04-27T00:15:56;101464.91;;;12.50;40.89
31044;BME280;17710;52.520;13.352;2023-04-27T00:18:25;101462.31;;;12.49;41.21
31044;BME280;17710;52.520;13.352;2023-04-27T00:20:52;101462.31;;;12.49;41.27
31044;BME280;17710;52.520;13.352;2023-04-27T00:23:19;101459.59;;;12.50;41.38
31044;BME280;17710;52.520;13.352;2023-04-27T00:25:45;101469.06;;;12.59;41.04
31044;BME280;17710;52.520;13.352;2023-04-27T00:28:12;101463.75;;;12.59;40.86
31044;BME280;17710;52.520;13.352;2023-04-27T00:30:38;101466.00;;;12.71;40.96
31044;BME280;17710;52.520;13.352;2023-04-27T00:33:05;101460.78;;;12.94;40.32
31044;BME280;17710;52.520;13.352;2023-04-27T00:35:31;101472.72;;;12.81;40.31
31044;BME280;17710;52.520;13.352;2023-04-27T00:37:59;101470.94;;;13.08;40.05
31044;BME280;17710;52.520;13.352;2023-04-27T00:40:25;101470.59;;;13.19;39.74
31044;BME280;17710;52.520;13.352;2023-04-27T00:42:52;101468.84;;;12.91;40.30
31044;BME280;17710;52.520;13.352;2023-04-27T00:45:18;101475.28;;;12.84;40.30
31044;BME280;17710;52.520;13.352;2023-04-27T00:47:44;101470.94;;;12.82;40.34
31044;BME280;17710;52.520;13.352;2023-04-27T00:50:11;101474.44;;;12.56;41.12
31044;BME280;17710;52.520;13.352;2023-04-27T00:52:38;101476.56;;;12.72;40.91
31044;BME280;17710;52.520;13.352;2023-04-27T00:55:07;101485.22;;;12.77;40.67
31044;BME280;17710;52.520;13.352;2023-04-27T00:57:33;101480.88;;;12.75;40.99
31044;BME280;17710;52.520;13.352;2023-04-27T01:00:00;101485.63;;;12.65;40.86
31044;BME280;17710;52.520;13.352;2023-04-27T01:02:29;101484.81;;;12.90;40.62
31044;BME280;17710;52.520;13.352;2023-04-27T01:04:59;101482.16;;;12.63;41.29
31044;BME280;17710;52.520;13.352;2023-04-27T01:07:27;101491.69;;;12.69;41.19
31044;BME280;17710;52.520;13.352;2023-04-27T01:09:53;101484.53;;;12.45;41.87
31044;BME280;17710;52.520;13.352;2023-04-27T01:12:21;101483.72;;;12.69;41.42
31044;BME280;17710;52.520;13.352;2023-04-27T01:14:47;101483.72;;;12.69;41.50
31044;BME280;17710;52.520;13.352;2023-04-27T01:17:13;101483.75;;;12.95;41.21
31044;BME280;17710;52.520;13.352;2023-04-27T01:19:40;101482.44;;;13.07;40.89
31044;BME280;17710;52.520;13.352;2023-04-27T01:22:06;101491.16;;;13.12;40.90
31044;BME280;17710;52.520;13.352;2023-04-27T01:24:34;101481.03;;;12.70;41.51
31044;BME280;17710;52.520;13.352;2023-04-27T01:27:01;101490.88;;;12.93;41.29
31044;BME280;17710;52.520;13.352;2023-04-27T01:29:29;101497.47;;;12.82;41.57
31044;BME280;17710;52.520;13.352;2023-04-27T01:31:55;101499.63;;;12.97;41.32
31044;BME280;17710;52.520;13.352;2023-04-27T01:34:21;101494.91;;;12.52;42.20
31044;BME280;17710;52.520;13.352;2023-04-27T01:36:48;101489.53;;;12.54;42.38
31044;BME280;17710;52.520;13.352;2023-04-27T01:39:14;101495.69;;;12.54;42.30
31044;BME280;17710;52.520;13.352;2023-04-27T01:41:42;101498.72;;;12.70;41.95
31044;BME280;17710;52.520;13.352;2023-04-27T01:44:08;101501.31;;;12.73;41.82
31044;BME280;17710;52.520;13.352;2023-04-27T01:46:36;101499.44;;;12.75;41.84
31044;BME280;17710;52.520;13.352;2023-04-27T01:49:02;101500.16;;;12.80;41.48
31044;BME280;17710;52.520;13.352;2023-04-27T01:51:29;101509.72;;;12.86;41.32
31044;BME280;17710;52.520;13.352;2023-04-27T01:53:56;101508.28;;;12.75;41.45
31044;BME280;17710;52.520;13.352;2023-04-27T01:56:23;101509.97;;;12.78;41.18
31044;BME280;17710;52.520;13.352;2023-04-27T01:58:52;101515.41;;;12.73;41.46
31044;BME280;17710;52.520;13.352;2023-04-27T02:01:19;101513.38;;;12.82;41.42
31044;BME280;17710;52.520;13.352;2023-04-27T02:03:46;101514.94;;;12.87;41.11
31044;BME280;17710;52.520;13.352;2023-04-27T02:06:12;101517.59;;;12.87;41.08
31044;BME280;17710;52.520;13.352;2023-04-27T02:08:39;101513.22;;;12.60;41.72
31044;BME280;17710;52.520;13.352;2023-04-27T02:11:05;101516.78;;;12.59;41.89
31044;BME280;17710;52.520;13.352;2023-04-27T02:13:31;101525.13;;;12.47;41.83
31044;BME280;17710;52.520;13.352;2023-04-27T02:15:59;101524.19;;;12.48;41.75
31044;BME280;17710;52.520;13.352;2023-04-27T02:18:27;101528.41;;;12.25;42.09
31044;BME280;17710;52.520;13.352;2023-04-27T02:20:53;101528.69;;;12.16;42.20
31044;BME280;17710;52.520;13.352;2023-04-27T02:23:20;101526.06;;;12.15;42.68
31044;BME280;17710;52.520;13.352;2023-04-27T02:25:46;101540.84;;;12.23;42.19
31044;BME280;17710;52.520;13.352;2023-04-27T02:28:12;101528.59;;;12.19;42.33
31044;BME280;17710;52.520;13.352;2023-04-27T02:30:39;101536.25;;;12.28;42.02
31044;BME280;17710;52.520;13.352;2023-04-27T02:33:06;101527.53;;;12.25;42.17
31044;BME280;17710;52.520;13.352;2023-04-27T02:35:33;101534.25;;;12.07;42.28
31044;BME280;17710;52.520;13.352;2023-04-27T02:37:59;101537.47;;;12.18;42.11
31044;BME280;17710;52.520;13.352;2023-04-27T02:40:26;101537.41;;;12.20;42.28
31044;BME280;17710;52.520;13.352;2023-04-27T02:42:52;101538.81;;;12.31;41.97
31044;BME280;17710;52.520;13.352;2023-04-27T02:45:18;101532.25;;;12.45;41.62
31044;BME280;17710;52.520;13.352;2023-04-27T02:47:45;101528.69;;;12.46;41.47
31044;BME280;17710;52.520;13.352;2023-04-27T02:50:12;101538.09;;;12.26;41.68
31044;BME280;17710;52.520;13.352;2023-04-27T02:52:39;101534.66;;;12.23;41.89
31044;BME280;17710;52.520;13.352;2023-04-27T02:55:06;101539.06;;;12.24;41.71
31044;BME280;17710;52.520;13.352;2023-04-27T02:57:32;101538.38;;;12.17;42.07
31044;BME280;17710;52.520;13.352;2023-04-27T02:59:58;101545.56;;;12.14;41.92
31044;BME280;17710;52.520;13.352;2023-04-27T03:02:25;101548.78;;;11.94;42.62
31044;BME280;17710;52.520;13.352;2023-04-27T03:04:51;101545.34;;;11.89;42.68
31044;BME280;17710;52.520;13.352;2023-04-27T03:07:20;101537.16;;;11.98;42.43
31044;BME280;17710;52.520;13.352;2023-04-27T03:09:47;101545.03;;;12.01;42.60
31044;BME280;17710;52.520;13.352;2023-04-27T03:12:13;101550.72;;;12.18;42.18
31044;BME280;17710;52.520;13.352;2023-04-27T03:14:40;101555.59;;;12.32;41.79
31044;BME280;17710;52.520;13.352;2023-04-27T03:17:06;101549.63;;;12.25;42.09
31044;BME280;17710;52.520;13.352;2023-04-27T03:19:33;101546.63;;;12.07;42.64
31044;BME280;17710;52.520;13.352;2023-04-27T03:21:59;101548.94;;;12.19;41.93
31044;BME280;17710;52.520;13.352;2023-04-27T03:24:27;101551.09;;;12.05;42.30
31044;BME280;17710;52.520;13.352;2023-04-27T03:26:54;101546.72;;;12.04;42.44
31044;BME280;17710;52.520;13.352;2023-04-27T03:29:20;101552.84;;;11.75;43.04
31044;BME280;17710;52.520;13.352;2023-04-27T03:31:46;101550.16;;;12.07;42.37
31044;BME280;17710;52.520;13.352;2023-04-27T03:34:13;101555.47;;;12.07;42.28
31044;BME280;17710;52.520;13.352;2023-04-27T03:36:39;101559.81;;;12.08;42.13
31044;BME280;17710;52.520;13.352;2023-04-27T03:39:06;101561.28;;;12.20;42.00
31044;BME280;17710;52.520;13.352;2023-04-27T03:41:33;101561.28;;;12.20;42.14
31044;BME280;17710;52.520;13.352;2023-04-27T03:44:00;101558.72;;;12.15;42.08
31044;BME280;17710;52.520;13.352;2023-04-27T03:46:26;101561.47;;;12.42;41.63
31044;BME280;17710;52.520;13.352;2023-04-27T03:48:52;101567.59;;;12.44;41.54
31044;BME280;17710;52.520;13.352;2023-04-27T03:51:19;101574.44;;;12.21;42.08
31044;BME280;17710;52.520;13.352;2023-04-27T03:53:45;101579.50;;;12.00;42.26
31044;BME280;17710;52.520;13.352;2023-04-27T03:56:12;101573.25;;;12.02;42.47
31044;BME280;17710;52.520;13.352;2023-04-27T03:58:39;101582.88;;;12.05;42.51
31044;BME280;17710;52.520;13.352;2023-04-27T04:01:06;101576.59;;;12.09;42.22
31044;BME280;17710;52.520;13.352;2023-04-27T04:03:34;101582.34;;;12.23;42.09
31044;BME280;17710;52.520;13.352;2023-04-27T04:06:00;101584.16;;;12.21;42.03
31044;BME280;17710;52.520;13.352;2023-04-27T04:08:27;101578.53;;;12.33;41.62
31044;BME280;17710;52.520;13.352;2023-04-27T04:10:55;101587.06;;;12.13;42.14
31044;BME280;17710;52.520;13.352;2023-04-27T04:13:21;101589.06;;;12.05;42.35
31044;BME280;17710;52.520;13.352;2023-04-27T04:15:49;101594.78;;;11.90;42.79
31044;BME280;17710;52.520;13.352;2023-04-27T04:18:15;101597.66;;;12.13;42.49
31044;BME280;17710;52.520;13.352;2023-04-27T04:20:42;101594.56;;;12.28;41.99
31044;BME280;17710;52.520;13.352;2023-04-27T04:23:08;101600.44;;;12.40;42.02
31044;BME280;17710;52.520;13.352;2023-04-27T04:25:36;101604.75;;;12.13;42.21
31044;BME280;17710;52.520;13.352;2023-04-27T04:28:04;101603.53;;;11.93;42.57
31044;BME280;17710;52.520;13.352;2023-04-27T04:30:31;101599.53;;;11.77;42.95
31044;BME280;17710;52.520;13.352;2023-04-27T04:32:59;101612.00;;;11.72;43.34
31044;BME280;17710;52.520;13.352;2023-04-27T04:35:25;101599.81;;;12.30;41.94
31044;BME280;17710;52.520;13.352;2023-04-27T04:37:52;101608.19;;;12.46;41.62
31044;BME280;17710;52.520;13.352;2023-04-27T04:40:18;101605.38;;;12.52;41.21
31044;BME280;17710;52.520;13.352;2023-04-27T04:42:45;101607.78;;;12.59;41.04
31044;BME280;17710;52.520;13.352;2023-04-27T04:45:11;101606.56;;;12.99;40.38
31044;BME280;17710;52.520;13.352;2023-04-27T04:47:39;101611.88;;;12.69;40.73
31044;BME280;17710;52.520;13.352;2023-04-27T04:50:07;101610.03;;;12.73;40.46
31044;BME280;17710;52.520;13.352;2023-04-27T04:52:34;101616.03;;;12.49;40.83
31044;BME280;17710;52.520;13.352;2023-04-27T04:55:01;101621.03;;;12.59;40.29
31044;BME280;17710;52.520;13.352;2023-04-27T04:57:27;101624.63;;;12.27;41.16
31044;BME280;17710;52.520;13.352;2023-04-27T04:59:54;101612.84;;;12.37;40.88
31044;BME280;17710;52.520;13.352;2023-04-27T05:02:21;101624.56;;;12.60;40.80
31044;BME280;17710;52.520;13.352;2023-04-27T05:04:47;101626.09;;;12.67;40.65
31044;BME280;17710;52.520;13.352;2023-04-27T05:07:17;101622.50;;;12.40;41.08
31044;BME280;17710;52.520;13.352;2023-04-27T05:09:44;101623.31;;;12.42;41.27
31044;BME280;17710;52.520;13.352;2023-04-27T05:12:13;101621.84;;;12.61;40.81
31044;BME280;17710;52.520;13.352;2023-04-27T05:14:40;101627.91;;;12.66;40.82
31044;BME280;17710;52.520;13.352;2023-04-27T05:17:07;101632.44;;;12.61;40.89
31044;BME280;17710;52.520;13.352;2023-04-27T05:19:34;101630.03;;;12.54;40.99
31044;BME280;17710;52.520;13.352;2023-04-27T05:22:00;101630.94;;;12.82;40.68
31044;BME280;17710;52.520;13.352;2023-04-27T05:24:28;101624.19;;;13.00;39.94
31044;BME280;17710;52.520;13.352;2023-04-27T05:26:54;101625.06;;;12.72;40.38
31044;BME280;17710;52.520;13.352;2023-04-27T05:29:21;101627.47;;;12.80;39.97
31044;BME280;17710;52.520;13.352;2023-04-27T05:31:48;101629.59;;;12.97;39.83
31044;BME280;17710;52.520;13.352;2023-04-27T05:34:14;101619.88;;;12.97;39.73
31044;BME280;17710;52.520;13.352;2023-04-27T05:36:41;101627.75;;;12.71;39.90
31044;BME280;17710;52.520;13.352;2023-04-27T05:39:07;101628.75;;;13.24;39.39
31044;BME280;17710;52.520;13.352;2023-04-27T05:41:35;101632.03;;;13.32;38.97
31044;BME280;17710;52.520;13.352;2023-04-27T05:44:01;101635.81;;;13.25;38.81
31044;BME280;17710;52.520;13.352;2023-04-27T05:46:27;101638.03;;;12.82;39.31
31044;BME280;17710;52.520;13.352;2023-04-27T05:48:54;101633.75;;;13.05;39.21
31044;BME280;17710;52.520;13.352;2023-04-27T05:51:21;101640.75;;;13.08;39.26
31044;BME280;17710;52.520;13.352;2023-04-27T05:53:47;101642.00;;;12.96;39.19
31044;BME280;17710;52.520;13.352;2023-04-27T05:56:13;101640.84;;;13.05;39.25
31044;BME280;17710;52.520;13.352;2023-04-27T05:58:41;101638.44;;;12.97;39.56
31044;BME280;17710;52.520;13.352;2023-04-27T06:01:08;101637.91;;;13.14;39.21
31044;BME280;17710;52.520;13.352;2023-04-27T06:03:34;101643.81;;;12.94;39.29
31044;BME280;17710;52.520;13.352;2023-04-27T06:06:01;101651.66;;;12.69;40.13
31044;BME280;17710;52.520;13.352;2023-04-27T06:08:27;101648.44;;;12.60;40.47
31044;BME280;17710;52.520;13.352;2023-04-27T06:10:54;101642.53;;;13.35;39.26
31044;BME280;17710;52.520;13.352;2023-04-27T06:13:21;101654.25;;;13.56;38.25
31044;BME280;17710;52.520;13.352;2023-04-27T06:15:48;101655.44;;;13.46;38.39
31044;BME280;17710;52.520;13.352;2023-04-27T06:18:15;101661.78;;;13.68;37.95
31044;BME280;17710;52.520;13.352;2023-04-27T06:20:42;101656.19;;;13.77;37.29
31044;BME280;17710;52.520;13.352;2023-04-27T06:23:08;101658.38;;;13.65;37.53
31044;BME280;17710;52.520;13.352;2023-04-27T06:25:35;101663.84;;;13.60;37.59
31044;BME280;17710;52.520;13.352;2023-04-27T06:28:04;101668.13;;;13.38;37.79
31044;BME280;17710;52.520;13.352;2023-04-27T06:30:31;101662.63;;;13.44;37.48
31044;BME280;17710;52.520;13.352;2023-04-27T06:32:58;101662.66;;;13.69;37.36
31044;BME280;17710;52.520;13.352;2023-04-27T06:35:25;101667.50;;;13.82;37.01
31044;BME280;17710;52.520;13.352;2023-04-27T06:37:51;101661.72;;;13.71;36.59
31044;BME280;17710;52.520;13.352;2023-04-27T06:40:22;101667.81;;;13.98;36.35
31044;BME280;17710;52.520;13.352;2023-04-27T06:42:49;101678.31;;;14.03;36.29
31044;BME280;17710;52.520;13.352;2023-04-27T06:45:15;101659.75;;;14.26;35.89
31044;BME280;17710;52.520;13.352;2023-04-27T06:47:42;101671.47;;;14.45;35.59
31044;BME280;17710;52.520;13.352;2023-04-27T06:50:10;101663.63;;;14.65;35.21
31044;BME280;17710;52.520;13.352;2023-04-27T06:52:36;101667.22;;;14.64;35.04
31044;BME280;17710;52.520;13.352;2023-04-27T06:55:03;101660.63;;;14.26;35.49
31044;BME280;17710;52.520;13.352;2023-04-27T06:57:30;101668.13;;;14.15;35.96
31044;BME280;17710;52.520;13.352;2023-04-27T06:59:56;101673.88;;;14.28;35.53
31044;BME280;17710;52.520;13.352;2023-04-27T07:02:22;101673.44;;;14.15;35.52
31044;BME280;17710;52.520;13.352;2023-04-27T07:04:49;101675.41;;;14.58;35.18
31044;BME280;17710;52.520;13.352;2023-04-27T07:07:16;101673.84;;;14.53;35.25
31044;BME280;17710;52.520;13.352;2023-04-27T07:09:43;101674.22;;;14.67;34.92
31044;BME280;17710;52.520;13.352;2023-04-27T07:12:09;101676.22;;;13.86;35.66
31044;BME280;17710;52.520;13.352;2023-04-27T07:14:36;101682.94;;;14.47;35.42
31044;BME280;17710;52.520;13.352;2023-04-27T07:17:02;101680.22;;;14.72;35.12
31044;BME280;17710;52.520;13.352;2023-04-27T07:19:29;101672.63;;;15.08;34.96
31044;BME280;17710;52.520;13.352;2023-04-27T07:21:55;101672.75;;;15.27;34.23
31044;BME280;17710;52.520;13.352;2023-04-27T07:24:23;101667.41;;;14.83;34.54
31044;BME280;17710;52.520;13.352;2023-04-27T07:26:49;101676.06;;;15.10;34.21
31044;BME280;17710;52.520;13.352;2023-04-27T07:29:16;101671.75;;;15.51;33.72
31044;BME280;17710;52.520;13.352;2023-04-27T07:31:42;101677.88;;;15.95;32.58
31044;BME280;17710;52.520;13.352;2023-04-27T07:34:08;101668.97;;;16.16;32.14
31044;BME280;17710;52.520;13.352;2023-04-27T07:36:35;101665.63;;;16.31;31.95
31044;BME280;17710;52.520;13.352;2023-04-27T07:39:05;101673.38;;;16.17;31.37
31044;BME280;17710;52.520;13.352;2023-04-27T07:41:33;101666.28;;;16.37;31.34
31044;BME280;17710;52.520;13.352;2023-04-27T07:44:00;101670.59;;;16.20;31.24
31044;BME280;17710;52.520;13.352;2023-04-27T07:46:26;101673.53;;;16.53;30.68
31044;BME280;17710;52.520;13.352;2023-04-27T07:48:54;101676.13;;;16.55;30.72
31044;BME280;17710;52.520;13.352;2023-04-27T07:51:23;101682.28;;;15.96;31.40
31044;BME280;17710;52.520;13.352;2023-04-27T07:53:52;101683.66;;;16.26;30.99
31044;BME280;17710;52.520;13.352;2023-04-27T07:56:19;101684.19;;;15.94;31.18
31044;BME280;17710;52.520;13.352;2023-04-27T07:58:47;101683.75;;;15.83;31.60
31044;BME280;17710;52.520;13.352;2023-04-27T08:01:13;101685.63;;;16.21;31.00
31044;BME280;17710;52.520;13.352;2023-04-27T08:03:39;101683.34;;;16.53;30.52
31044;BME280;17710;52.520;13.352;2023-04-27T08:06:06;101687.97;;;16.29;30.58
31044;BME280;17710;52.520;13.352;2023-04-27T08:08:32;101692.69;;;16.22;30.48
31044;BME280;17710;52.520;13.352;2023-04-27T08:10:59;101689.50;;;15.74;31.04
31044;BME280;17710;52.520;13.352;2023-04-27T08:13:25;101692.50;;;15.21;32.06
31044;BME280;17710;52.520;13.352;2023-04-27T08:15:53;101692.22;;;15.72;31.39
31044;BME280;17710;52.520;13.352;2023-04-27T08:18:22;101688.69;;;15.72;31.66
31044;BME280;17710;52.520;13.352;2023-04-27T08:20:49;101687.50;;;15.57;31.36
31044;BME280;17710;52.520;13.352;2023-04-27T08:23:16;101689.09;;;16.23;30.88
31044;BME280;17710;52.520;13.352;2023-04-27T08:25:42;101687.94;;;16.69;30.08
31044;BME280;17710;52.520;13.352;2023-04-27T08:28:09;101698.03;;;16.02;30.34
31044;BME280;17710;52.520;13.352;2023-04-27T08:30:35;101695.97;;;15.45;30.73
31044;BME280;17710;52.520;13.352;2023-04-27T08:33:03;101699.84;;;14.93;31.33
31044;BME280;17710;52.520;13.352;2023-04-27T08:35:29;101696.72;;;14.82;31.22
31044;BME280;17710;52.520;13.352;2023-04-27T08:37:56;101699.53;;;14.77;31.85
31044;BME280;17710;52.520;13.352;2023-04-27T08:40:22;101693.06;;;15.07;31.56
31044;BME280;17710;52.520;13.352;2023-04-27T08:42:59;101688.59;;;15.30;31.44
31044;BME280;17710;52.520;13.352;2023-04-27T08:45:26;101701.41;;;14.75;32.29
31044;BME280;17710;52.520;13.352;2023-04-27T08:47:53;101694.16;;;14.79;31.76
31044;BME280;17710;52.520;13.352;2023-04-27T08:50:21;101696.31;;;14.69;31.37
31044;BME280;17710;52.520;13.352;2023-04-27T08:52:49;101697.84;;;14.98;30.95
31044;BME280;17710;52.520;13.352;2023-04-27T08:55:16;101690.00;;;14.95;30.90
31044;BME280;17710;52.520;13.352;2023-04-27T08:57:52;101700.06;;;14.87;31.27
31044;BME280;17710;52.520;13.352;2023-04-27T09:00:19;101696.72;;;14.82;31.68
31044;BME280;17710;52.520;13.352;2023-04-27T09:02:47;101695.28;;;14.96;31.18
31044;BME280;17710;52.520;13.352;2023-04-27T09:05:17;101693.81;;;15.33;30.87
31044;BME280;17710;52.520;13.352;2023-04-27T09:07:56;101694.81;;;15.74;30.28
31044;BME280;17710;52.520;13.352;2023-04-27T09:10:23;101700.41;;;16.49;29.45
31044;BME280;17710;52.520;13.352;2023-04-27T09:12:56;101690.25;;;17.14;28.64
31044;BME280;17710;52.520;13.352;2023-04-27T09:15:23;101686.78;;;16.75;28.77
31044;BME280;17710;52.520;13.352;2023-04-27T09:17:53;101694.19;;;16.48;29.20
31044;BME280;17710;52.520;13.352;2023-04-27T09:20:21;101699.75;;;16.23;29.72
31044;BME280;17710;52.520;13.352;2023-04-27T09:22:51;101697.91;;;16.25;29.73
31044;BME280;17710;52.520;13.352;2023-04-27T09:25:25;101699.31;;;16.14;30.00
31044;BME280;17710;52.520;13.352;2023-04-27T09:27:51;101691.94;;;15.78;30.38
31044;BME280;17710;52.520;13.352;2023-04-27T09:30:18;101693.94;;;15.73;29.98
31044;BME280;17710;52.520;13.352;2023-04-27T09:32:50;101692.06;;;15.32;30.01
31044;BME280;17710;52.520;13.352;2023-04-27T09:35:20;101687.41;;;15.60;29.98
31044;BME280;17710;52.520;13.352;2023-04-27T09:37:48;101689.72;;;15.24;30.79
31044;BME280;17710;52.520;13.352;2023-04-27T09:40:17;101671.63;;;15.10;31.06
31044;BME280;17710;52.520;13.352;2023-04-27T09:42:45;101687.88;;;15.26;30.70
31044;BME280;17710;52.520;13.352;2023-04-27T09:45:12;101668.78;;;15.15;30.99
31044;BME280;17710;52.520;13.352;2023-04-27T09:47:39;101670.66;;;15.13;31.17
31044;BME280;17710;52.520;13.352;2023-04-27T09:50:06;101680.69;;;15.28;30.23
31044;BME280;17710;52.520;13.352;2023-04-27T09:52:34;101677.94;;;15.30;29.90
31044;BME280;17710;52.520;13.352;2023-04-27T09:55:02;101670.91;;;15.72;29.45
31044;BME280;17710;52.520;13.352;2023-04-27T09:57:36;101668.31;;;15.91;29.24
31044;BME280;17710;52.520;13.352;2023-04-27T10:00:14;101661.66;;;16.01;29.45
31044;BME280;17710;52.520;13.352;2023-04-27T10:02:55;101666.53;;;15.70;28.48
31044;BME280;17710;52.520;13.352;2023-04-27T10:05:42;101676.66;;;14.50;28.98
31044;BME280;17710;52.520;13.352;2023-04-27T10:08:15;101673.28;;;14.45;27.60
31044;BME280;17710;52.520;13.352;2023-04-27T10:10:45;101665.38;;;14.66;27.77
31044;BME280;17710;52.520;13.352;2023-04-27T10:13:19;101658.16;;;15.15;27.37
31044;BME280;17710;52.520;13.352;2023-04-27T10:15:48;101652.69;;;15.40;26.75
31044;BME280;17710;52.520;13.352;2023-04-27T10:18:24;101650.34;;;16.35;26.13
31044;BME280;17710;52.520;13.352;2023-04-27T10:20:51;101643.50;;;16.48;25.84
31044;BME280;17710;52.520;13.352;2023-04-27T10:23:22;101649.16;;;16.22;26.54
31044;BME280;17710;52.520;13.352;2023-04-27T10:25:49;101655.84;;;15.91;27.12
31044;BME280;17710;52.520;13.352;2023-04-27T10:28:16;101656.06;;;16.07;27.56
31044;BME280;17710;52.520;13.352;2023-04-27T10:30:44;101662.59;;;15.80;28.05
31044;BME280;17710;52.520;13.352;2023-04-27T10:33:15;101655.78;;;15.51;28.56
31044;BME280;17710;52.520;13.352;2023-04-27T10:35:43;101659.47;;;15.69;28.74
31044;BME280;17710;52.520;13.352;2023-04-27T10:38:14;101656.97;;;15.22;29.12
31044;BME280;17710;52.520;13.352;2023-04-27T10:40:43;101656.78;;;15.48;29.33
31044;BME280;17710;52.520;13.352;2023-04-27T10:43:11;101664.84;;;15.89;28.71
31044;BME280;17710;52.520;13.352;2023-04-27T10:45:38;101659.06;;;16.00;28.34
31044;BME280;17710;52.520;13.352;2023-04-27T10:48:05;101654.72;;;15.97;26.63
31044;BME280;17710;52.520;13.352;2023-04-27T10:50:33;101655.56;;;16.38;25.99
31044;BME280;17710;52.520;13.352;2023-04-27T10:53:01;101641.25;;;16.59;24.50
31044;BME280;17710;52.520;13.352;2023-04-27T10:55:28;101651.53;;;17.06;24.35
31044;BME280;17710;52.520;13.352;2023-04-27T10:57:56;101647.69;;;16.74;24.47
31044;BME280;17710;52.520;13.352;2023-04-27T11:00:24;101643.31;;;16.14;25.19
31044;BME280;17710;52.520;13.352;2023-04-27T11:02:51;101649.53;;;16.14;25.44
31044;BME280;17710;52.520;13.352;2023-04-27T11:05:20;101648.56;;;15.54;26.45
31044;BME280;17710;52.520;13.352;2023-04-27T11:07:49;101647.50;;;15.15;27.65
31044;BME280;17710;52.520;13.352;2023-04-27T11:10:16;101654.66;;;15.13;27.97
31044;BME280;17710;52.520;13.352;2023-04-27T11:12:43;101647.88;;;15.28;27.29
31044;BME280;17710;52.520;13.352;2023-04-27T11:15:09;101656.34;;;15.15;27.40
31044;BME280;17710;52.520;13.352;2023-04-27T11:17:37;101655.00;;;15.27;27.15
31044;BME280;17710;52.520;13.352;2023-04-27T11:20:04;101652.84;;;15.79;26.96
31044;BME280;17710;52.520;13.352;2023-04-27T11:22:33;101649.72;;;16.10;26.35
31044;BME280;17710;52.520;13.352;2023-04-27T11:25:01;101649.09;;;16.23;25.83
31044;BME280;17710;52.520;13.352;2023-04-27T11:27:35;101653.50;;;16.04;25.43
31044;BME280;17710;52.520;13.352;2023-04-27T11:30:03;101659.91;;;16.59;25.15
31044;BME280;17710;52.520;13.352;2023-04-27T11:32:29;101654.97;;;16.70;24.79
31044;BME280;17710;52.520;13.352;2023-04-27T11:34:56;101658.22;;;16.77;25.10
31044;BME280;17710;52.520;13.352;2023-04-27T11:37:23;101659.97;;;16.78;25.25
31044;BME280;17710;52.520;13.352;2023-04-27T11:39:51;101667.38;;;16.12;26.35
31044;BME280;17710;52.520;13.352;2023-04-27T11:42:21;101665.59;;;16.72;25.47
31044;BME280;17710;52.520;13.352;2023-04-27T11:44:51;101674.47;;;16.52;26.00
31044;BME280;17710;52.520;13.352;2023-04-27T11:47:17;101673.38;;;16.77;25.49
31044;BME280;17710;52.520;13.352;2023-04-27T11:49:45;101671.50;;;16.97;25.23
31044;BME280;17710;52.520;13.352;2023-04-27T11:52:12;101672.88;;;17.06;25.45
31044;BME280;17710;52.520;13.352;2023-04-27T11:54:46;101676.38;;;16.69;25.59
31044;BME280;17710;52.520;13.352;2023-04-27T11:57:12;101670.94;;;16.72;25.08
31044;BME280;17710;52.520;13.352;2023-04-27T11:59:40;101677.69;;;17.17;24.96
31044;BME280;17710;52.520;13.352;2023-04-27T12:02:07;101676.13;;;17.12;24.73
31044;BME280;17710;52.520;13.352;2023-04-27T12:04:33;101681.03;;;16.84;23.57
31044;BME280;17710;52.520;13.352;2023-04-27T12:07:00;101675.06;;;17.34;23.14
31044;BME280;17710;52.520;13.352;2023-04-27T12:09:28;101679.09;;;17.42;24.04
31044;BME280;17710;52.520;13.352;2023-04-27T12:11:54;101680.88;;;17.25;24.78
31044;BME280;17710;52.520;13.352;2023-04-27T12:14:20;101690.25;;;17.14;24.80
31044;BME280;17710;52.520;13.352;2023-04-27T12:16:48;101680.97;;;17.40;24.22
31044;BME280;17710;52.520;13.352;2023-04-27T12:19:14;101684.06;;;17.50;24.24
31044;BME280;17710;52.520;13.352;2023-04-27T12:21:42;101688.28;;;17.73;24.06
31044;BME280;17710;52.520;13.352;2023-04-27T12:24:09;101680.50;;;17.32;24.49
31044;BME280;17710;52.520;13.352;2023-04-27T12:26:35;101683.88;;;17.36;24.74
31044;BME280;17710;52.520;13.352;2023-04-27T12:29:02;101683.97;;;17.70;24.32
31044;BME280;17710;52.520;13.352;2023-04-27T12:31:29;101700.09;;;17.86;24.40
31044;BME280;17710;52.520;13.352;2023-04-27T12:33:57;101695.78;;;18.01;23.74
31044;BME280;17710;52.520;13.352;2023-04-27T12:36:23;101692.63;;;18.10;23.72
31044;BME280;17710;52.520;13.352;2023-04-27T12:38:51;101688.47;;;18.04;23.69
31044;BME280;17710;52.520;13.352;2023-04-27T12:41:17;101687.84;;;18.66;23.23